createdAt,value
2023-06-19T00:02:03.452Z,101121.97
2023-06-19T00:04:30.931Z,101122.34
2023-06-19T00:07:01.296Z,101122.53
2023-06-19T00:09:29.934Z,101118.59
2023-06-19T00:11:57.231Z,101119.13
2023-06-19T00:14:24.772Z,101120.69
2023-06-19T00:16:52.056Z,101123.56
2023-06-19T00:19:19.910Z,101123.78
2023-06-19T00:21:49.493Z,101122.34
2023-06-19T00:24:18.414Z,101114.00
2023-06-19T00:26:47.201Z,101115.56
2023-06-19T00:29:14.464Z,101118.94
2023-06-19T00:31:41.707Z,101127.16
2023-06-19T00:34:09.040Z,101126.16
2023-06-19T00:36:36.294Z,101114.91
2023-06-19T00:39:03.575Z,101119.00
2023-06-19T00:41:31.878Z,101114.66
2023-06-19T00:44:02.937Z,101119.00
2023-06-19T00:46:30.375Z,101118.06
2023-06-19T00:48:58.882Z,101108.66
2023-06-19T00:51:26.209Z,101125.03
2023-06-19T00:53:53.620Z,101124.63
2023-06-19T00:56:21.232Z,101122.91
2023-06-19T00:58:48.761Z,101130.88
2023-06-19T01:01:17.702Z,101123.69
2023-06-19T01:03:45.278Z,101121.66
2023-06-19T01:06:18.301Z,101127.72
2023-06-19T01:09:01.981Z,101115.66
2023-06-19T01:11:34.593Z,101118.34
2023-06-19T01:14:09.668Z,101116.78
2023-06-19T01:16:38.981Z,101112.78
2023-06-19T01:19:11.586Z,101105.28
2023-06-19T01:21:39.957Z,101108.78
2023-06-19T01:24:09.701Z,101100.00
2023-06-19T01:26:37.250Z,101102.25
2023-06-19T01:29:05.074Z,101102.38
2023-06-19T01:31:36.286Z,101101.41
2023-06-19T01:34:07.970Z,101104.81
2023-06-19T01:36:36.890Z,101099.53
2023-06-19T01:39:05.047Z,101098.16
2023-06-19T01:41:35.269Z,101092.31
2023-06-19T01:44:03.284Z,101094.69
2023-06-19T01:46:30.795Z,101085.41
2023-06-19T01:48:58.565Z,101085.41
2023-06-19T01:51:25.866Z,101083.38
2023-06-19T01:53:53.159Z,101087.28
2023-06-19T01:56:20.644Z,101083.97
2023-06-19T01:58:49.323Z,101081.88
2023-06-19T02:01:17.704Z,101073.66
2023-06-19T02:03:46.338Z,101080.56
2023-06-19T02:06:13.949Z,101077.56
2023-06-19T02:08:41.206Z,101076.44
2023-06-19T02:11:09.529Z,101063.63
2023-06-19T02:13:40.004Z,101066.69
2023-06-19T02:16:10.425Z,101066.84
2023-06-19T02:18:37.711Z,101063.56
2023-06-19T02:21:05.211Z,101070.00
2023-06-19T02:23:32.506Z,101057.47
2023-06-19T02:26:00.851Z,101057.25
2023-06-19T02:28:29.437Z,101055.09
2023-06-19T02:30:56.913Z,101059.31
2023-06-19T02:33:25.611Z,101062.88
2023-06-19T02:35:54.185Z,101060.06
2023-06-19T02:38:21.755Z,101058.75
2023-06-19T02:40:49.175Z,101054.31
2023-06-19T02:43:16.472Z,101056.63
2023-06-19T02:45:43.788Z,101057.34
2023-06-19T02:48:11.099Z,101045.72
2023-06-19T02:50:39.721Z,101048.59
2023-06-19T02:53:07.038Z,101051.13
2023-06-19T02:55:34.510Z,101042.66
2023-06-19T02:58:01.801Z,101051.13
2023-06-19T03:00:29.427Z,101051.78
2023-06-19T03:02:56.773Z,101050.66
2023-06-19T03:05:26.931Z,101051.31
2023-06-19T03:07:55.705Z,101050.13
2023-06-19T03:10:24.644Z,101040.09
2023-06-19T03:12:53.080Z,101044.16
2023-06-19T03:15:20.464Z,101048.84
2023-06-19T03:17:48.755Z,101049.28
2023-06-19T03:20:17.396Z,101053.81
2023-06-19T03:22:44.683Z,101056.44
2023-06-19T03:25:13.328Z,101057.75
2023-06-19T03:27:40.656Z,101061.13
2023-06-19T03:30:08.625Z,101063.44
2023-06-19T03:32:35.953Z,101061.56
2023-06-19T03:35:03.686Z,101068.88
2023-06-19T03:37:32.144Z,101067.59
2023-06-19T03:39:59.530Z,101066.31
2023-06-19T03:42:29.662Z,101060.00
2023-06-19T03:44:57.159Z,101069.06
2023-06-19T03:47:24.494Z,101076.56
2023-06-19T03:49:54.589Z,101079.50
2023-06-19T03:52:22.519Z,101081.47
2023-06-19T03:54:50.900Z,101071.91
2023-06-19T03:57:18.243Z,101072.28
2023-06-19T03:59:46.955Z,101074.41
2023-06-19T04:02:14.246Z,101081.59
2023-06-19T04:04:41.528Z,101080.28
2023-06-19T04:07:09.165Z,101084.53
2023-06-19T04:09:36.641Z,101086.53
2023-06-19T04:12:04.589Z,101082.78
2023-06-19T04:14:34.717Z,101068.84
2023-06-19T04:17:03.391Z,101074.78
2023-06-19T04:19:30.631Z,101063.13
2023-06-19T04:21:58.138Z,101051.44
2023-06-19T04:24:25.427Z,101047.22
2023-06-19T04:26:52.710Z,101042.22
2023-06-19T04:29:21.895Z,101044.59
2023-06-19T04:31:49.209Z,101047.91
2023-06-19T04:34:19.145Z,101044.78
2023-06-19T04:36:46.456Z,101056.25
2023-06-19T04:39:13.746Z,101059.41
2023-06-19T04:41:43.282Z,101058.47
2023-06-19T04:44:10.635Z,101060.44
2023-06-19T04:46:38.117Z,101061.09
2023-06-19T04:49:07.036Z,101064.16
2023-06-19T04:51:35.844Z,101061.38
2023-06-19T04:54:03.659Z,101067.28
2023-06-19T04:56:30.934Z,101072.38
2023-06-19T04:58:59.698Z,101072.09
2023-06-19T05:01:28.070Z,101071.38
2023-06-19T05:03:57.394Z,101081.41
2023-06-19T05:06:25.050Z,101092.84
2023-06-19T05:08:53.777Z,101086.53
2023-06-19T05:11:21.057Z,101088.88
2023-06-19T05:13:48.360Z,101084.72
2023-06-19T05:16:15.637Z,101091.31
2023-06-19T05:18:46.739Z,101093.25
2023-06-19T05:21:14.034Z,101093.91
2023-06-19T05:23:41.390Z,101095.94
2023-06-19T05:26:10.110Z,101086.19
2023-06-19T05:28:37.409Z,101097.56
2023-06-19T05:31:04.685Z,101096.66
2023-06-19T05:33:31.955Z,101095.88
2023-06-19T05:35:59.287Z,101097.41
2023-06-19T05:38:26.605Z,101098.47
2023-06-19T05:40:53.889Z,101106.66
2023-06-19T05:43:22.846Z,101095.28
2023-06-19T05:45:50.122Z,101100.88
2023-06-19T05:48:17.378Z,101104.47
2023-06-19T05:50:44.723Z,101103.38
2023-06-19T05:53:14.730Z,101103.69
2023-06-19T05:55:43.135Z,101105.44
2023-06-19T05:58:13.119Z,101108.47
2023-06-19T06:00:41.814Z,101111.88
2023-06-19T06:03:10.428Z,101109.91
2023-06-19T06:05:39.237Z,101108.41
2023-06-19T06:08:06.779Z,101100.81
2023-06-19T06:10:36.931Z,101097.22
2023-06-19T06:13:04.830Z,101089.50
2023-06-19T06:15:31.911Z,101083.72
2023-06-19T06:18:00.532Z,101079.06
2023-06-19T06:20:27.943Z,101083.41
2023-06-19T06:22:55.216Z,101084.94
2023-06-19T06:25:22.549Z,101096.91
2023-06-19T06:27:51.093Z,101098.13
2023-06-19T06:30:20.583Z,101108.13
2023-06-19T06:32:48.242Z,101104.84
2023-06-19T06:35:16.931Z,101096.28
2023-06-19T06:37:44.216Z,101097.94
2023-06-19T06:40:11.759Z,101096.31
2023-06-19T06:42:39.267Z,101093.84
2023-06-19T06:45:07.662Z,101091.34
2023-06-19T06:47:35.834Z,101092.81
2023-06-19T06:50:03.517Z,101103.56
2023-06-19T06:52:31.994Z,101101.13
2023-06-19T06:54:59.146Z,101108.84
2023-06-19T06:57:26.455Z,101118.41
2023-06-19T06:59:53.740Z,101119.63
2023-06-19T07:02:21.161Z,101110.97
2023-06-19T07:04:49.382Z,101105.19
2023-06-19T07:07:16.932Z,101101.03
2023-06-19T07:09:45.550Z,101109.75
2023-06-19T07:12:12.810Z,101108.13
2023-06-19T07:14:42.752Z,101109.59
2023-06-19T07:17:10.176Z,101120.59
2023-06-19T07:19:37.491Z,101110.03
2023-06-19T07:22:05.406Z,101110.66
2023-06-19T07:24:32.717Z,101115.44
2023-06-19T07:27:01.611Z,101113.31
2023-06-19T07:29:28.958Z,101112.06
2023-06-19T07:31:56.206Z,101110.16
2023-06-19T07:34:23.475Z,101104.72
2023-06-19T07:36:51.765Z,101111.53
2023-06-19T07:39:19.038Z,101113.78
2023-06-19T07:41:46.321Z,101113.78
2023-06-19T07:44:14.981Z,101112.69
2023-06-19T07:46:42.407Z,101112.63
2023-06-19T07:49:09.552Z,101106.47
2023-06-19T07:51:36.657Z,101108.38
2023-06-19T07:54:03.985Z,101111.00
2023-06-19T07:56:32.291Z,101119.56
2023-06-19T07:58:59.562Z,101115.75
2023-06-19T08:01:28.310Z,101114.16
2023-06-19T08:03:58.457Z,101113.22
2023-06-19T08:06:25.853Z,101116.25
2023-06-19T08:08:53.142Z,101111.25
2023-06-19T08:11:20.439Z,101111.25
2023-06-19T08:13:47.709Z,101116.91
2023-06-19T08:16:15.268Z,101112.72
2023-06-19T08:18:45.800Z,101120.66
2023-06-19T08:21:14.305Z,101122.50
2023-06-19T08:23:41.543Z,101112.16
2023-06-19T08:26:10.640Z,101108.28
2023-06-19T08:28:38.670Z,101111.81
2023-06-19T08:31:06.000Z,101110.41
2023-06-19T08:33:36.611Z,101108.63
2023-06-19T08:36:05.555Z,101111.81
2023-06-19T08:38:33.132Z,101106.19
2023-06-19T08:41:00.496Z,101102.56
2023-06-19T08:43:27.943Z,101113.13
2023-06-19T08:46:04.659Z,101113.13
2023-06-19T08:48:32.077Z,101115.84
2023-06-19T08:50:59.153Z,101115.97
2023-06-19T08:53:27.704Z,101107.50
2023-06-19T08:55:54.962Z,101113.22
2023-06-19T08:58:24.401Z,101112.91
2023-06-19T09:00:51.654Z,101107.03
2023-06-19T09:03:21.638Z,101109.22
2023-06-19T09:05:49.441Z,101118.69
2023-06-19T09:08:17.260Z,101117.50
2023-06-19T09:10:55.848Z,101120.66
2023-06-19T09:13:24.721Z,101128.19
2023-06-19T09:15:59.228Z,101121.25
2023-06-19T09:18:26.868Z,101116.78
2023-06-19T09:20:55.225Z,101128.84
2023-06-19T09:23:24.663Z,101120.66
2023-06-19T09:25:55.150Z,101116.88
2023-06-19T09:28:24.075Z,101110.13
2023-06-19T09:30:56.009Z,101115.63
2023-06-19T09:33:23.907Z,101115.25
2023-06-19T09:35:51.532Z,101118.69
2023-06-19T09:38:22.096Z,101109.91
2023-06-19T09:40:49.695Z,101111.84
2023-06-19T09:43:23.232Z,101109.41
2023-06-19T09:45:50.882Z,101112.22
2023-06-19T09:48:21.005Z,101116.91
2023-06-19T09:50:51.477Z,101120.59
2023-06-19T09:53:20.056Z,101125.75
2023-06-19T09:55:48.823Z,101126.41
2023-06-19T09:58:16.406Z,101128.34
2023-06-19T10:00:49.871Z,101133.88
2023-06-19T10:03:18.471Z,101132.97
2023-06-19T10:05:45.883Z,101148.47
2023-06-19T10:08:14.309Z,101142.16
2023-06-19T10:10:48.233Z,101132.66
2023-06-19T10:13:16.778Z,101121.97
2023-06-19T10:15:46.024Z,101116.38
2023-06-19T10:18:15.377Z,101106.44
2023-06-19T10:20:46.187Z,101095.25
2023-06-19T10:23:16.658Z,101097.31
2023-06-19T10:25:45.993Z,101092.22
2023-06-19T10:28:20.916Z,101094.00
2023-06-19T10:30:55.027Z,101091.94
2023-06-19T10:33:23.194Z,101088.78
2023-06-19T10:35:50.574Z,101078.63
2023-06-19T10:38:17.810Z,101076.16
2023-06-19T10:40:45.702Z,101073.41
2023-06-19T10:43:13.528Z,101072.34
2023-06-19T10:45:40.876Z,101080.34
2023-06-19T10:48:09.660Z,101078.78
2023-06-19T10:50:38.505Z,101079.59
2023-06-19T10:53:05.871Z,101073.59
2023-06-19T10:55:36.169Z,101075.22
2023-06-19T10:58:03.695Z,101068.41
2023-06-19T11:00:33.871Z,101058.16
2023-06-19T11:03:01.292Z,101062.16
2023-06-19T11:05:30.171Z,101055.72
2023-06-19T11:07:59.000Z,101057.50
2023-06-19T11:10:28.433Z,101051.41
2023-06-19T11:12:56.981Z,101056.66
2023-06-19T11:15:30.042Z,101050.69
2023-06-19T11:17:58.287Z,101047.34
2023-06-19T11:20:25.746Z,101051.69
2023-06-19T11:23:00.742Z,101061.72
2023-06-19T11:25:36.648Z,101046.53
2023-06-19T11:28:05.489Z,101042.03
2023-06-19T11:30:34.757Z,101045.66
2023-06-19T11:33:02.193Z,101040.38
2023-06-19T11:35:34.067Z,101038.25
2023-06-19T11:38:03.223Z,101035.72
2023-06-19T11:40:40.314Z,101035.53
2023-06-19T11:43:07.562Z,101038.72
2023-06-19T11:45:45.093Z,101034.44
2023-06-19T11:48:12.576Z,101029.56
2023-06-19T11:50:39.907Z,101034.28
2023-06-19T11:53:08.568Z,101028.09
2023-06-19T11:55:37.051Z,101028.25
2023-06-19T11:58:06.468Z,101032.66
2023-06-19T12:00:33.747Z,101027.34
2023-06-19T12:03:01.092Z,101027.69
2023-06-19T12:05:28.603Z,101038.22
2023-06-19T12:07:55.709Z,101030.72
2023-06-19T12:10:24.435Z,101026.28
2023-06-19T12:12:51.874Z,101026.94
2023-06-19T12:15:21.237Z,101019.84
2023-06-19T12:17:49.758Z,101025.84
2023-06-19T12:20:16.994Z,101030.16
2023-06-19T12:22:44.431Z,101028.13
2023-06-19T12:25:13.952Z,101025.06
2023-06-19T12:27:42.652Z,101031.88
2023-06-19T12:30:11.427Z,101021.78
2023-06-19T12:32:40.061Z,101024.47
2023-06-19T12:35:07.988Z,101031.88
2023-06-19T12:37:35.704Z,101022.16
2023-06-19T12:40:03.368Z,101023.16
2023-06-19T12:42:30.830Z,101019.31
2023-06-19T12:44:59.543Z,101020.94
2023-06-19T12:47:26.850Z,101026.97
2023-06-19T12:49:54.107Z,101018.88
2023-06-19T12:52:21.166Z,101028.75
2023-06-19T12:54:49.459Z,101020.56
2023-06-19T12:57:16.770Z,101026.56
2023-06-19T12:59:44.052Z,101017.28
2023-06-19T13:02:15.203Z,101014.81
2023-06-19T13:04:42.991Z,101015.63
2023-06-19T13:07:10.314Z,101008.69
2023-06-19T13:09:37.624Z,101010.09
2023-06-19T13:12:05.717Z,101002.16
2023-06-19T13:14:34.526Z,100998.63
2023-06-19T13:17:02.194Z,101005.69
2023-06-19T13:19:30.819Z,101005.28
2023-06-19T13:22:01.626Z,101001.59
2023-06-19T13:24:28.944Z,100994.00
2023-06-19T13:26:56.620Z,101002.22
2023-06-19T13:29:24.224Z,100997.03
2023-06-19T13:31:51.513Z,100994.28
2023-06-19T13:34:18.791Z,100992.09
2023-06-19T13:36:47.516Z,100991.00
2023-06-19T13:39:15.585Z,100981.06
2023-06-19T13:41:42.791Z,100987.69
2023-06-19T13:44:10.126Z,100988.78
2023-06-19T13:46:38.409Z,100984.94
2023-06-19T13:49:06.329Z,100981.91
2023-06-19T13:51:34.732Z,100990.22
2023-06-19T13:54:03.546Z,100986.09
2023-06-19T13:56:31.081Z,100980.91
2023-06-19T13:58:59.506Z,100990.81
2023-06-19T14:01:27.124Z,100982.72
2023-06-19T14:03:55.611Z,100980.75
2023-06-19T14:06:22.940Z,100966.03
2023-06-19T14:08:50.469Z,100964.50
2023-06-19T14:11:21.584Z,100965.47
2023-06-19T14:13:48.841Z,100966.66
2023-06-19T14:16:16.080Z,100957.44
2023-06-19T14:18:44.368Z,100960.16
2023-06-19T14:21:11.631Z,100960.97
2023-06-19T14:23:38.905Z,100961.25
2023-06-19T14:26:06.160Z,100968.09
2023-06-19T14:28:34.872Z,100963.75
2023-06-19T14:31:02.189Z,100966.72
2023-06-19T14:33:29.477Z,100966.50
2023-06-19T14:35:56.835Z,100972.84
2023-06-19T14:38:24.132Z,100970.59
2023-06-19T14:40:51.407Z,100973.81
2023-06-19T14:43:18.729Z,100977.69
2023-06-19T14:45:47.447Z,100976.81
2023-06-19T14:48:16.164Z,100981.88
2023-06-19T14:50:44.565Z,100977.84
2023-06-19T14:53:11.901Z,100978.03
2023-06-19T14:55:39.191Z,100976.97
2023-06-19T14:58:06.713Z,100973.38
2023-06-19T15:00:33.946Z,100983.09
2023-06-19T15:03:02.734Z,100978.31
2023-06-19T15:05:30.123Z,100981.81
2023-06-19T15:07:57.607Z,100976.66
2023-06-19T15:10:25.039Z,100977.22
2023-06-19T15:12:52.458Z,100980.53
2023-06-19T15:15:19.771Z,100982.63
2023-06-19T15:17:47.079Z,100973.50
2023-06-19T15:20:17.116Z,100974.34
2023-06-19T15:22:44.383Z,100975.13
2023-06-19T15:25:11.656Z,100970.47
2023-06-19T15:27:39.200Z,100976.81
2023-06-19T15:30:07.759Z,100971.09
2023-06-19T15:32:35.022Z,100974.84
2023-06-19T15:35:02.378Z,100974.84
2023-06-19T15:37:31.276Z,100970.69
2023-06-19T15:39:58.642Z,100974.13
2023-06-19T15:42:25.955Z,100972.44
2023-06-19T15:44:53.271Z,100977.41
2023-06-19T15:47:23.035Z,100972.91
2023-06-19T15:49:50.377Z,100970.94
2023-06-19T15:54:44.657Z,100968.78
2023-06-19T15:57:12.170Z,100961.56
2023-06-19T15:59:39.370Z,100955.53
2023-06-19T16:02:06.546Z,100957.16
2023-06-19T16:04:33.851Z,100960.63
2023-06-19T16:07:01.173Z,100958.94
2023-06-19T16:09:29.848Z,100956.84
2023-06-19T16:11:59.927Z,100957.34
2023-06-19T16:14:27.163Z,100955.97
2023-06-19T16:16:54.233Z,100958.47
2023-06-19T16:19:21.810Z,100957.84
2023-06-19T16:21:50.751Z,100948.56
2023-06-19T16:24:18.057Z,100955.94
2023-06-19T16:26:45.404Z,100951.56
2023-06-19T16:29:14.061Z,100959.69
2023-06-19T16:31:42.541Z,100952.47
2023-06-19T16:34:10.828Z,100953.69
2023-06-19T16:36:38.092Z,100948.22
2023-06-19T16:39:05.145Z,100949.75
2023-06-19T16:41:32.352Z,100939.69
2023-06-19T16:44:00.895Z,100943.16
2023-06-19T16:46:29.570Z,100947.41
2023-06-19T16:48:56.891Z,100957.22
2023-06-19T16:51:24.197Z,100952.84
2023-06-19T16:53:52.494Z,100952.13
2023-06-19T16:56:19.884Z,100948.72
2023-06-19T16:58:48.229Z,100951.53
2023-06-19T17:01:15.517Z,100949.50
2023-06-19T17:03:44.246Z,100951.78
2023-06-19T17:06:11.562Z,100951.53
2023-06-19T17:08:38.833Z,100951.97
2023-06-19T17:11:05.979Z,100950.06
2023-06-19T17:13:33.164Z,100946.00
2023-06-19T17:16:00.188Z,100944.16
2023-06-19T17:18:27.639Z,100943.25
2023-06-19T17:20:56.322Z,100941.31
2023-06-19T17:23:23.586Z,100940.47
2023-06-19T17:25:50.700Z,100948.06
2023-06-19T17:28:17.920Z,100946.59
2023-06-19T17:30:45.261Z,100948.09
2023-06-19T17:33:13.260Z,100946.69
2023-06-19T17:35:40.527Z,100943.97
2023-06-19T17:38:08.935Z,100949.47
2023-06-19T17:40:36.186Z,100945.94
2023-06-19T17:43:03.480Z,100948.28
2023-06-19T17:45:30.559Z,100953.53
2023-06-19T17:47:57.838Z,100954.94
2023-06-19T17:50:25.593Z,100945.91
2023-06-19T17:52:53.232Z,100949.28
2023-06-19T17:55:22.193Z,100945.91
2023-06-19T17:57:49.442Z,100951.69
2023-06-19T18:00:16.756Z,100948.91
2023-06-19T18:02:44.156Z,100947.09
2023-06-19T18:05:11.548Z,100950.56
2023-06-19T18:07:38.876Z,100949.75
2023-06-19T18:10:06.900Z,100943.34
2023-06-19T18:12:35.399Z,100946.13
2023-06-19T18:15:02.732Z,100938.72
2023-06-19T18:17:30.105Z,100939.25
2023-06-19T18:19:57.435Z,100943.72
2023-06-19T18:22:24.966Z,100942.16
2023-06-19T18:27:19.267Z,100944.09
2023-06-19T18:29:48.002Z,100946.19
2023-06-19T18:32:16.327Z,100942.72
2023-06-19T18:34:43.684Z,100947.91
2023-06-19T18:37:11.011Z,100948.16
2023-06-19T18:39:38.089Z,100947.66
2023-06-19T18:42:06.165Z,100949.94
2023-06-19T18:44:33.432Z,100951.13
2023-06-19T18:47:02.344Z,100946.09
2023-06-19T18:49:32.504Z,100951.19
2023-06-19T18:52:00.079Z,100958.75
2023-06-19T18:54:27.134Z,100955.44
2023-06-19T18:56:54.388Z,100957.22
2023-06-19T18:59:21.473Z,100958.41
2023-06-19T19:01:49.006Z,100954.41
2023-06-19T19:04:17.791Z,100957.19
2023-06-19T19:06:46.547Z,100963.22
2023-06-19T19:09:13.808Z,100966.44
2023-06-19T19:11:41.103Z,100968.94
2023-06-19T19:14:08.252Z,100967.28
2023-06-19T19:16:36.441Z,100975.31
2023-06-19T19:19:05.096Z,100972.00
2023-06-19T19:21:34.022Z,100978.81
2023-06-19T19:24:01.470Z,100977.44
2023-06-19T19:26:28.870Z,100973.28
2023-06-19T19:28:56.200Z,100976.13
2023-06-19T19:31:23.780Z,100976.69
2023-06-19T19:33:51.128Z,100977.44
2023-06-19T19:36:18.724Z,100983.81
2023-06-19T19:38:47.382Z,100985.78
2023-06-19T19:41:14.633Z,100990.47
2023-06-19T19:43:41.880Z,100983.25
2023-06-19T19:46:09.221Z,100983.16
2023-06-19T19:48:36.454Z,100984.66
2023-06-19T19:51:03.683Z,100987.22
2023-06-19T19:53:30.939Z,100991.06
2023-06-19T19:55:59.807Z,100992.22
2023-06-19T19:58:27.161Z,100990.22
2023-06-19T20:00:54.554Z,100985.06
2023-06-19T20:03:23.548Z,100986.53
2023-06-19T20:05:50.951Z,100993.72
2023-06-19T20:08:18.252Z,100986.06
2023-06-19T20:10:45.503Z,100990.13
2023-06-19T20:13:14.155Z,100995.22
2023-06-19T20:15:41.566Z,100993.63
2023-06-19T20:18:08.679Z,100993.13
2023-06-19T20:20:35.918Z,101003.97
2023-06-19T20:23:03.195Z,101006.09
2023-06-19T20:25:30.559Z,101004.44
2023-06-19T20:28:08.009Z,101003.19
2023-06-19T20:30:37.126Z,100997.00
2023-06-19T20:33:05.224Z,101002.47
2023-06-19T20:35:33.708Z,100990.00
2023-06-19T20:38:01.222Z,100998.25
2023-06-19T20:40:28.717Z,101001.22
2023-06-19T20:42:56.228Z,101005.19
2023-06-19T20:45:23.348Z,101002.53
2023-06-19T20:47:51.915Z,101006.28
2023-06-19T20:50:19.612Z,101009.41
2023-06-19T20:52:47.133Z,101002.25
2023-06-19T20:55:14.235Z,101003.34
2023-06-19T20:57:41.435Z,101015.03
2023-06-19T21:00:09.744Z,101004.56
2023-06-19T21:02:37.117Z,101014.19
2023-06-19T21:05:05.708Z,101014.81
2023-06-19T21:07:33.030Z,101012.63
2023-06-19T21:10:00.496Z,101007.88
2023-06-19T21:12:27.980Z,101014.75
2023-06-19T21:14:56.024Z,101019.13
2023-06-19T21:17:24.002Z,101012.53
2023-06-19T21:19:52.515Z,101011.09
2023-06-19T21:22:21.211Z,101017.13
2023-06-19T21:24:48.906Z,101015.22
2023-06-19T21:27:17.695Z,101012.19
2023-06-19T21:29:45.080Z,101008.91
2023-06-19T21:32:12.683Z,101018.91
2023-06-19T21:34:39.742Z,101014.53
2023-06-19T21:37:07.376Z,101021.38
2023-06-19T21:39:36.009Z,101012.69
2023-06-19T21:42:04.347Z,101018.50
2023-06-19T21:44:32.843Z,101015.66
2023-06-19T21:47:00.631Z,101018.56
2023-06-19T21:49:28.892Z,101018.34
2023-06-19T21:51:56.403Z,101015.44
2023-06-19T21:54:23.422Z,101020.66
2023-06-19T21:56:51.933Z,101029.38
2023-06-19T21:59:19.260Z,101033.09
2023-06-19T22:01:46.509Z,101031.44
2023-06-19T22:04:13.841Z,101034.75
2023-06-19T22:06:41.591Z,101038.50
2023-06-19T22:09:08.935Z,101038.28
2023-06-19T22:11:37.259Z,101041.22
2023-06-19T22:14:05.945Z,101035.63
2023-06-19T22:16:33.322Z,101035.63
2023-06-19T22:19:02.083Z,101036.03
2023-06-19T22:21:29.768Z,101031.06
2023-06-19T22:23:57.099Z,101034.16
2023-06-19T22:26:24.404Z,101030.22
2023-06-19T22:28:51.670Z,101031.88
2023-06-19T22:31:20.354Z,101031.88
2023-06-19T22:33:47.623Z,101027.50
2023-06-19T22:36:15.119Z,101036.00
2023-06-19T22:38:42.685Z,101035.19
2023-06-19T22:41:11.978Z,101038.50
2023-06-19T22:43:40.270Z,101034.97
2023-06-19T22:46:07.569Z,101028.53
2023-06-19T22:48:36.407Z,101029.78
2023-06-19T22:51:03.714Z,101034.78
2023-06-19T22:53:30.958Z,101034.13
2023-06-19T22:55:58.221Z,101040.56
2023-06-19T22:58:25.515Z,101035.81
2023-06-19T23:00:53.055Z,101042.00
2023-06-19T23:03:20.366Z,101048.25
2023-06-19T23:05:49.192Z,101039.53
2023-06-19T23:08:17.841Z,101039.72
2023-06-19T23:10:45.078Z,101032.06
2023-06-19T23:13:12.747Z,101031.59
2023-06-19T23:15:40.005Z,101039.63
2023-06-19T23:18:07.325Z,101043.53
2023-06-19T23:20:35.733Z,101043.81
2023-06-19T23:23:04.386Z,101054.56
2023-06-19T23:25:31.769Z,101050.63
2023-06-19T23:27:59.022Z,101047.28
2023-06-19T23:30:26.271Z,101046.44
2023-06-19T23:32:53.559Z,101039.59
2023-06-19T23:35:21.125Z,101045.19
2023-06-19T23:37:49.615Z,101040.00
2023-06-19T23:40:18.259Z,101040.63
2023-06-19T23:42:45.921Z,101044.56
2023-06-19T23:45:12.996Z,101035.06
2023-06-19T23:47:40.317Z,101041.31
2023-06-19T23:50:08.666Z,101046.09
2023-06-19T23:52:43.501Z,101042.94
2023-06-19T23:55:11.962Z,101045.00
2023-06-19T23:57:40.884Z,101048.31
